createdAt,value
2018-05-25T07:29:49.122Z,53.4
2018-05-25T07:30:39.461Z,53.4
2018-05-25T07:31:28.967Z,53.4
2018-05-25T07:32:19.619Z,53.4
2018-05-25T07:33:09.460Z,53.4
2018-05-25T07:33:59.459Z,53.4
2018-05-25T07:34:49.524Z,53.4
2018-05-25T07:35:39.411Z,53.4
2018-05-25T07:36:30.209Z,53.4
2018-05-25T07:37:19.161Z,53.4
2018-05-25T07:38:10.356Z,53.3
2018-05-25T07:38:59.867Z,53.3
2018-05-25T07:39:50.213Z,53.3
2018-05-25T07:40:40.261Z,53.3
2018-05-25T07:41:30.369Z,53.3
2018-05-25T07:42:20.393Z,53.3
2018-05-25T07:43:10.174Z,53.3
2018-05-25T07:44:00.545Z,53.3
2018-05-25T07:44:50.880Z,53.3
2018-05-25T07:45:39.550Z,53.3
2018-05-25T07:46:31.037Z,53.3
2018-05-25T07:47:20.859Z,53.2
2018-05-25T07:48:10.635Z,53.3
2018-05-25T07:49:01.202Z,53.3
2018-05-25T07:49:50.678Z,53.3
2018-05-25T07:50:40.747Z,53.3
2018-05-25T07:51:30.528Z,53.4
2018-05-25T07:52:21.434Z,53.4
2018-05-25T07:53:11.506Z,53.4
2018-05-25T07:54:01.544Z,53.6
2018-05-25T07:54:51.626Z,53.6
2018-05-25T07:55:41.111Z,53.7
2018-05-25T07:56:31.519Z,53.8
2018-05-25T07:57:21.826Z,53.8
2018-05-25T07:58:11.904Z,53.9
2018-05-25T07:59:01.941Z,53.9
2018-05-25T07:59:52.046Z,54
2018-05-25T08:00:41.625Z,54.1
2018-05-25T08:01:32.132Z,54.1
2018-05-25T08:02:21.076Z,54.3
2018-05-25T08:03:12.319Z,54.3
2018-05-25T08:04:02.045Z,54.4
2018-05-25T08:04:52.386Z,54.5
2018-05-25T08:05:42.509Z,54.6
2018-05-25T08:06:32.572Z,54.6
2018-05-25T08:07:22.601Z,54.7
2018-05-25T08:08:12.374Z,54.8
2018-05-25T08:09:02.756Z,54.8
2018-05-25T08:09:52.509Z,54.9
2018-05-25T08:10:42.055Z,54.9
2018-05-25T08:11:32.639Z,55.1
2018-05-25T08:12:22.476Z,55.2
2018-05-25T08:13:13.066Z,55.3
2018-05-25T08:14:02.859Z,55.4
2018-05-25T08:14:52.962Z,55.4
2018-05-25T08:15:42.489Z,55.6
2018-05-25T08:16:32.466Z,55.7
2018-05-25T08:17:22.531Z,55.8
2018-05-25T08:18:12.899Z,55.8
2018-05-25T08:19:02.973Z,55.9
2018-05-25T08:19:52.446Z,55.9
2018-05-25T08:20:43.351Z,56.1
2018-05-25T08:21:33.419Z,56.2
2018-05-25T08:22:22.731Z,56.3
2018-05-25T08:23:12.738Z,56.3
2018-05-25T08:24:03.927Z,56.4
2018-05-25T08:24:53.968Z,56.5
2018-05-25T08:25:43.503Z,56.5
2018-05-25T08:26:33.570Z,56.6
2018-05-25T08:27:23.868Z,56.8
2018-05-25T08:28:13.963Z,56.8
2018-05-25T08:29:04.018Z,57
2018-05-25T08:29:53.864Z,57.1
2018-05-25T08:30:44.112Z,57.1
2018-05-25T08:31:33.649Z,57.3
2018-05-25T08:32:23.723Z,57.3
2018-05-25T08:33:14.053Z,57.4
2018-05-25T08:34:04.436Z,57.4
2018-05-25T08:34:54.161Z,57.6
2018-05-25T08:35:44.506Z,57.7
2018-05-25T08:37:24.364Z,57.8
2018-05-25T08:38:15.022Z,57.9
2018-05-25T08:39:05.110Z,58
2018-05-25T08:39:55.171Z,58.1
2018-05-25T08:40:44.904Z,58.2
2018-05-25T08:41:34.676Z,58.3
2018-05-25T08:42:25.294Z,58.4
2018-05-25T08:43:15.701Z,58.5
2018-05-25T08:44:55.524Z,58.7
2018-05-25T08:45:45.009Z,58.8
2018-05-25T08:46:35.683Z,58.9
2018-05-25T08:47:25.712Z,58.9
2018-05-25T08:48:15.129Z,59
2018-05-25T08:49:05.987Z,59.1
2018-05-25T08:49:55.143Z,59.2
2018-05-25T08:50:45.743Z,59.3
2018-05-25T08:51:35.769Z,59.4
2018-05-25T08:52:26.100Z,59.4
2018-05-25T08:53:15.341Z,59.6
2018-05-25T08:54:06.372Z,59.6
2018-05-25T08:54:56.091Z,59.7
2018-05-25T08:55:46.154Z,59.8
2018-05-25T08:56:35.576Z,59.9
2018-05-25T08:57:25.936Z,59.9
2018-05-25T08:58:16.279Z,60.1
2018-05-25T08:59:06.379Z,60.2
2018-05-25T08:59:56.454Z,60.3
2018-05-25T09:00:46.261Z,60.4
2018-05-25T09:01:36.580Z,60.5
2018-05-25T09:02:26.606Z,60.6
2018-05-25T09:03:16.689Z,60.7
2018-05-25T09:04:07.055Z,60.8
2018-05-25T09:04:56.812Z,60.9
2018-05-25T09:05:46.878Z,61
2018-05-25T09:06:37.231Z,61.1
2018-05-25T09:07:27.283Z,61.2
2018-05-25T09:08:17.097Z,61.3
2018-05-25T09:09:06.869Z,61.3
2018-05-25T09:09:56.916Z,61.4
2018-05-25T09:10:46.989Z,61.5
2018-05-25T09:11:37.625Z,61.5
2018-05-25T09:12:28.049Z,61.6
2018-05-25T09:13:17.802Z,61.7
2018-05-25T09:14:07.586Z,61.8
2018-05-25T09:14:57.368Z,61.9
2018-05-25T09:15:47.631Z,61.9
2018-05-25T09:16:36.639Z,62
2018-05-25T09:17:27.578Z,62.1
2018-05-25T09:18:17.860Z,62.3
2018-05-25T09:19:07.905Z,62.4
2018-05-25T09:19:57.978Z,62.4
2018-05-25T09:20:47.756Z,62.4
2018-05-25T09:21:38.750Z,62.6
2018-05-25T09:22:28.180Z,62.6
2018-05-25T09:23:18.216Z,62.7
2018-05-25T09:24:08.286Z,62.8
2018-05-25T09:24:57.824Z,62.9
2018-05-25T09:25:48.408Z,63.1
2018-05-25T09:26:38.741Z,63.2
2018-05-25T09:27:28.004Z,63.3
2018-05-25T09:28:18.947Z,63.4
2018-05-25T09:29:07.616Z,63.4
2018-05-25T09:29:57.987Z,63.5
2018-05-25T09:30:49.271Z,63.6
2018-05-25T09:31:38.588Z,63.6
2018-05-25T09:32:29.180Z,63.7
2018-05-25T09:33:18.814Z,63.8
2018-05-25T09:34:09.093Z,63.8
2018-05-25T09:34:58.832Z,63.9
2018-05-25T09:35:49.486Z,64.1
2018-05-25T09:36:38.981Z,64.2
2018-05-25T09:37:29.347Z,64.3
2018-05-25T09:38:19.408Z,64.4
2018-05-25T09:39:09.498Z,64.4
2018-05-25T09:39:59.517Z,64.6
2018-05-25T09:40:49.876Z,64.7
2018-05-25T09:41:39.110Z,64.7
2018-05-25T09:42:30.030Z,64.9
2018-05-25T09:43:19.794Z,64.9
2018-05-25T09:44:09.857Z,65
2018-05-25T09:44:59.616Z,65.1
2018-05-25T09:45:49.909Z,65.1
2018-05-25T09:46:40.350Z,65.3
2018-05-25T09:47:29.831Z,65.3
2018-05-25T09:48:20.169Z,65.4
2018-05-25T09:49:09.966Z,65.6
2018-05-25T09:50:00.005Z,65.6
2018-05-25T09:50:50.647Z,65.7
2018-05-25T09:51:40.697Z,65.8
2018-05-25T09:52:30.808Z,65.8
2018-05-25T09:53:20.837Z,65.8
2018-05-25T09:54:10.637Z,65.8
2018-05-25T09:55:00.425Z,65.8
2018-05-25T09:55:51.043Z,65.9
2018-05-25T09:56:40.820Z,65.9
2018-05-25T09:57:30.864Z,65.9
2018-05-25T09:58:21.232Z,65.9
2018-05-25T09:59:10.750Z,65.9
2018-05-25T10:00:01.096Z,65.9
2018-05-25T10:00:51.167Z,66
2018-05-25T10:01:41.204Z,66
2018-05-25T10:02:31.521Z,66.1
2018-05-25T10:03:21.330Z,66.1
2018-05-25T10:04:11.715Z,66.2
2018-05-25T10:05:01.482Z,66.3
2018-05-25T10:05:51.909Z,66.4
2018-05-25T10:06:41.394Z,66.4
2018-05-25T10:07:31.365Z,66.5
2018-05-25T10:08:21.744Z,66.6
2018-05-25T10:09:11.532Z,66.7
2018-05-25T10:10:01.577Z,66.8
2018-05-25T10:10:51.358Z,66.9
2018-05-25T10:11:42.325Z,67
2018-05-25T10:12:31.770Z,67.1
2018-05-25T10:13:21.874Z,67.1
2018-05-25T10:14:11.918Z,67.1
2018-05-25T10:15:02.557Z,67.2
2018-05-25T10:15:52.321Z,67.3
2018-05-25T10:16:42.690Z,67.3
2018-05-25T10:17:32.156Z,67.4
2018-05-25T10:18:22.525Z,67.4
2018-05-25T10:19:12.286Z,67.4
2018-05-25T10:20:02.373Z,67.5
2018-05-25T10:20:52.508Z,67.5
2018-05-25T10:21:43.050Z,67.6
2018-05-25T10:22:32.828Z,67.6
2018-05-25T10:23:23.187Z,67.7
2018-05-25T10:24:13.016Z,67.8
2018-05-25T10:25:03.307Z,67.8
2018-05-25T10:25:52.807Z,67.9
2018-05-25T10:26:42.579Z,67.9
2018-05-25T10:27:33.227Z,68.1
2018-05-25T10:28:23.017Z,68.1
2018-05-25T10:29:13.583Z,68.2
2018-05-25T10:30:03.122Z,68.2
2018-05-25T10:30:53.755Z,68.2
2018-05-25T10:31:42.198Z,68.2
2018-05-25T10:32:33.110Z,68.2
2018-05-25T10:33:23.934Z,68.2
2018-05-25T10:34:13.774Z,68.3
2018-05-25T10:35:04.246Z,68.3
2018-05-25T10:35:54.120Z,68.4
2018-05-25T10:36:43.917Z,68.4
2018-05-25T10:37:34.270Z,68.4
2018-05-25T10:38:24.355Z,68.6
2018-05-25T10:39:13.282Z,68.6
2018-05-25T10:40:03.959Z,68.8
2018-05-25T10:40:54.296Z,68.8
2018-05-25T10:41:44.605Z,68.8
2018-05-25T10:42:34.652Z,68.9
2018-05-25T10:43:24.429Z,68.9
2018-05-25T10:44:14.496Z,69
2018-05-25T10:45:04.591Z,69
2018-05-25T10:45:54.357Z,69
2018-05-25T10:46:44.693Z,69.1
2018-05-25T10:47:34.720Z,69.1
2018-05-25T10:48:24.919Z,69.1
2018-05-25T10:49:14.317Z,69.1
2018-05-25T10:50:04.679Z,69.2
2018-05-25T10:50:54.994Z,69.2
2018-05-25T10:51:45.081Z,69.3
2018-05-25T10:52:35.417Z,69.3
2018-05-25T10:53:24.934Z,69.4
2018-05-25T10:54:15.589Z,69.5
2018-05-25T10:55:05.649Z,69.6
2018-05-25T10:55:55.672Z,69.6
2018-05-25T10:56:45.208Z,69.7
2018-05-25T10:57:34.956Z,69.8
2018-05-25T10:58:25.143Z,69.8
2018-05-25T10:59:15.396Z,69.9
2018-05-25T11:00:05.503Z,69.9
2018-05-25T11:00:56.100Z,70
2018-05-25T11:01:45.864Z,70.1
2018-05-25T11:02:35.640Z,70.1
2018-05-25T11:03:25.745Z,70.2
2018-05-25T11:04:14.929Z,70.3
2018-05-25T11:05:06.144Z,70.4
2018-05-25T11:05:55.621Z,70.4
2018-05-25T11:06:46.244Z,70.6
2018-05-25T11:07:36.590Z,70.6
2018-05-25T11:08:25.787Z,70.7
2018-05-25T11:09:16.153Z,70.8
2018-05-25T11:10:06.550Z,70.8
2018-05-25T11:10:56.546Z,70.9
2018-05-25T11:11:46.390Z,70.9
2018-05-25T11:12:36.973Z,71.1
2018-05-25T11:13:27.074Z,71.1
2018-05-25T11:14:17.090Z,71.2
2018-05-25T11:15:07.177Z,71.3
2018-05-25T11:15:57.213Z,71.3
2018-05-25T11:16:47.287Z,71.4
2018-05-25T11:17:36.839Z,71.4
2018-05-25T11:18:27.422Z,71.5
2018-05-25T11:19:17.203Z,71.5
2018-05-25T11:20:07.033Z,71.6
2018-05-25T11:20:57.305Z,71.7
2018-05-25T11:21:47.763Z,71.8
2018-05-25T11:22:37.761Z,71.9
2018-05-25T11:23:27.826Z,71.9
2018-05-25T11:24:17.359Z,72
2018-05-25T11:25:07.665Z,72
2018-05-25T11:25:57.734Z,72.1
2018-05-25T11:26:47.831Z,72.1
2018-05-25T11:27:38.160Z,72.2
2018-05-25T11:28:28.212Z,72.3
2018-05-25T11:29:18.246Z,72.3
2018-05-25T11:30:08.346Z,72.4
2018-05-25T11:30:57.839Z,72.4
2018-05-25T11:31:48.485Z,72.5
2018-05-25T11:32:38.233Z,72.6
2018-05-25T11:33:28.315Z,72.6
2018-05-25T11:34:18.162Z,72.6
2018-05-25T11:35:08.762Z,72.8
2018-05-25T11:35:58.517Z,72.8
2018-05-25T11:36:48.031Z,72.9
2018-05-25T11:37:38.652Z,72.9
2018-05-25T11:38:28.757Z,73
2018-05-25T11:39:18.498Z,73.1
2018-05-25T11:40:08.583Z,73.1
2018-05-25T11:40:58.351Z,73.2
2018-05-25T11:41:48.962Z,73.2
2018-05-25T11:42:38.782Z,73.3
2018-05-25T11:43:29.094Z,73.3
2018-05-25T11:44:19.467Z,73.3
2018-05-25T11:45:09.517Z,73.4
2018-05-25T11:45:59.020Z,73.4
2018-05-25T11:46:49.644Z,73.5
2018-05-25T11:47:38.864Z,73.6
2018-05-25T11:48:29.208Z,73.6
2018-05-25T11:49:19.842Z,73.7
2018-05-25T11:50:09.629Z,73.8
2018-05-25T11:50:59.977Z,73.8
2018-05-25T11:51:49.732Z,73.8
2018-05-25T11:52:39.817Z,73.9
2018-05-25T11:53:29.024Z,73.9
2018-05-25T11:54:19.664Z,73.9
2018-05-25T11:55:09.998Z,74
2018-05-25T11:56:00.349Z,74
2018-05-25T11:56:50.492Z,74.1
2018-05-25T11:57:40.507Z,74.1
2018-05-25T11:58:29.711Z,74.2
2018-05-25T11:59:19.779Z,74.3
2018-05-25T12:00:10.112Z,74.3
2018-05-25T12:01:00.744Z,74.3
2018-05-25T12:01:50.886Z,74.4
2018-05-25T12:02:40.313Z,74.4
2018-05-25T12:03:30.392Z,74.4
2018-05-25T12:04:20.974Z,74.4
2018-05-25T12:05:10.512Z,74.4
2018-05-25T12:06:01.153Z,74.4
2018-05-25T12:06:50.933Z,74.4
2018-05-25T12:07:40.948Z,74.5
2018-05-25T12:08:31.026Z,74.5
2018-05-25T12:09:21.150Z,74.5
2018-05-25T12:10:11.207Z,74.5
2018-05-25T12:11:01.552Z,74.6
2018-05-25T12:11:51.295Z,74.6
2018-05-25T12:12:41.091Z,74.6
2018-05-25T12:13:31.425Z,74.6
2018-05-25T12:14:21.749Z,74.6
2018-05-25T12:15:11.586Z,74.6
2018-05-25T12:16:01.885Z,74.6
2018-05-25T12:16:51.675Z,74.6
2018-05-25T12:17:41.733Z,74.6
2018-05-25T12:18:32.122Z,74.6
2018-05-25T12:19:22.138Z,74.6
2018-05-25T12:20:12.283Z,74.6
2018-05-25T12:21:02.025Z,74.6
2018-05-25T12:21:52.111Z,74.6
2018-05-25T12:22:41.878Z,74.6
2018-05-25T12:23:32.482Z,74.6
2018-05-25T12:24:22.556Z,74.6
2018-05-25T12:25:12.089Z,74.6
2018-05-25T12:26:00.204Z,74.6
2018-05-25T12:26:50.831Z,74.6
2018-05-25T12:27:40.888Z,74.6
2018-05-25T12:28:30.991Z,74.6
2018-05-25T12:29:21.012Z,74.7
2018-05-25T12:30:10.787Z,74.7
2018-05-25T12:31:01.166Z,74.7
2018-05-25T12:31:51.219Z,74.7
2018-05-25T12:32:40.167Z,74.7
2018-05-25T12:33:30.865Z,74.7
2018-05-25T12:34:21.139Z,74.7
2018-05-25T12:35:11.468Z,74.6
2018-05-25T12:36:01.516Z,74.7
2018-05-25T12:36:51.053Z,74.7
2018-05-25T12:37:41.366Z,74.7
2018-05-25T12:38:31.750Z,74.7
2018-05-25T12:39:21.775Z,74.6
2018-05-25T12:40:11.846Z,74.6
2018-05-25T12:41:01.919Z,74.6
2018-05-25T12:41:51.990Z,74.6
2018-05-25T12:42:42.107Z,74.6
2018-05-25T12:43:31.845Z,74.6
2018-05-25T12:44:22.190Z,74.6
2018-05-25T12:45:12.232Z,74.6
2018-05-25T12:46:02.048Z,74.6
2018-05-25T12:46:52.388Z,74.6
2018-05-25T12:47:42.197Z,74.6
2018-05-25T12:48:32.488Z,74.6
2018-05-25T12:49:22.310Z,74.6
2018-05-25T12:50:12.351Z,74.6
2018-05-25T12:51:02.717Z,74.6
2018-05-25T12:51:52.493Z,74.6
2018-05-25T12:52:42.824Z,74.6
2018-05-25T12:53:32.620Z,74.6
2018-05-25T12:54:24.348Z,74.6
2018-05-25T12:55:14.663Z,74.6
2018-05-25T12:56:04.792Z,74.6
2018-05-25T12:56:55.078Z,74.6
2018-05-25T12:57:44.865Z,74.5
2018-05-25T12:58:35.185Z,74.5
2018-05-25T12:59:25.285Z,74.5
2018-05-25T13:00:15.319Z,74.5
2018-05-25T13:01:05.107Z,74.5
2018-05-25T13:01:55.462Z,74.5
2018-05-25T13:02:45.532Z,74.5
2018-05-25T13:03:35.601Z,74.5
2018-05-25T13:04:25.636Z,74.5
2018-05-25T13:05:15.752Z,74.5
2018-05-25T13:06:05.513Z,74.4
2018-05-25T13:06:55.826Z,74.5
2018-05-25T13:07:45.951Z,74.5
2018-05-25T13:08:35.711Z,74.4
2018-05-25T13:09:24.982Z,74.4
2018-05-25T13:10:15.818Z,74.4
2018-05-25T13:11:03.970Z,74.5
2018-05-25T13:11:54.037Z,74.5
2018-05-25T13:12:44.091Z,74.4
2018-05-25T13:13:34.434Z,74.4
2018-05-25T13:14:24.230Z,74.4
2018-05-25T13:15:14.297Z,74.4
2018-05-25T13:16:04.618Z,74.4
2018-05-25T13:16:54.713Z,74.4
2018-05-25T13:17:44.750Z,74.4
2018-05-25T13:18:34.846Z,74.4
2018-05-25T13:19:24.612Z,74.4
2018-05-25T13:20:14.777Z,74.4
2018-05-25T13:21:05.005Z,74.4
2018-05-25T13:21:55.123Z,74.4
2018-05-25T13:22:45.184Z,74.4
2018-05-25T13:23:35.218Z,74.4
2018-05-25T13:24:25.310Z,74.4
2018-05-25T13:25:15.345Z,74.4
2018-05-25T13:26:05.416Z,74.4
2018-05-25T13:26:55.224Z,74.4
2018-05-25T13:27:45.281Z,74.4
2018-05-25T13:28:35.575Z,74.4
2018-05-25T13:29:25.677Z,74.4
2018-05-25T13:30:15.718Z,74.4
2018-05-25T13:31:05.518Z,74.4
2018-05-25T13:31:55.565Z,74.4
2018-05-25T13:32:45.659Z,74.4
2018-05-25T13:33:35.694Z,74.4
2018-05-25T13:34:26.041Z,74.4
2018-05-25T13:35:15.853Z,74.4
2018-05-25T13:36:06.169Z,74.4
2018-05-25T13:36:55.959Z,74.4
2018-05-25T13:37:45.505Z,74.3
2018-05-25T13:38:36.364Z,74.3
2018-05-25T13:39:26.544Z,74.3
2018-05-25T13:40:16.496Z,74.3
2018-05-25T13:41:06.002Z,74.3
2018-05-25T13:41:56.610Z,74.3
2018-05-25T13:42:46.696Z,74.3
2018-05-25T13:43:36.497Z,74.3
2018-05-25T13:44:26.836Z,74.3
2018-05-25T13:45:16.602Z,74.3
2018-05-25T13:46:06.672Z,74.3
2018-05-25T13:46:56.751Z,74.3
2018-05-25T13:47:47.101Z,74.3
2018-05-25T13:48:37.135Z,74.3
2018-05-25T13:49:27.190Z,74.3
2018-05-25T13:50:17.284Z,74.3
2018-05-25T13:51:07.052Z,74.3
2018-05-25T13:51:56.847Z,74.3
2018-05-25T13:52:47.515Z,74.3
2018-05-25T13:53:37.244Z,74.2
2018-05-25T13:54:27.334Z,74.2
2018-05-25T13:55:17.674Z,74.2
2018-05-25T13:56:07.459Z,74.2
2018-05-25T13:56:57.522Z,74.2
2018-05-25T13:57:47.865Z,74.2
2018-05-25T13:58:38.470Z,74.2
2018-05-25T13:59:27.701Z,74.1
2018-05-25T14:00:17.762Z,74.2
2018-05-25T14:01:08.101Z,74.1
2018-05-25T14:01:58.161Z,74.1
2018-05-25T14:02:47.967Z,74.1
2018-05-25T14:03:38.301Z,74.1
2018-05-25T14:04:28.163Z,74.1
2018-05-25T14:05:17.592Z,74.1
2018-05-25T14:06:08.649Z,74.1
2018-05-25T14:06:58.590Z,74.1
2018-05-25T14:07:48.612Z,74.1
2018-05-25T14:08:38.699Z,74.1
2018-05-25T14:09:28.744Z,74.1
2018-05-25T14:10:18.286Z,74.1
2018-05-25T14:11:08.622Z,74.1
2018-05-25T14:11:58.391Z,74.1
2018-05-25T14:12:48.803Z,74.1
2018-05-25T14:13:39.081Z,74.1
2018-05-25T14:14:29.127Z,74.1
2018-05-25T14:15:18.925Z,74
2018-05-25T14:16:08.978Z,74
2018-05-25T14:16:58.806Z,74
2018-05-25T14:17:49.394Z,74
2018-05-25T14:18:39.443Z,74
2018-05-25T14:19:29.564Z,74
2018-05-25T14:20:19.016Z,74
2018-05-25T14:21:09.654Z,74
2018-05-25T14:21:59.454Z,74
2018-05-25T14:22:49.231Z,74
2018-05-25T14:23:39.839Z,73.9
2018-05-25T14:24:29.624Z,73.9
2018-05-25T14:25:19.972Z,73.9
2018-05-25T14:26:09.769Z,73.9
2018-05-25T14:26:59.840Z,73.9
2018-05-25T14:27:50.174Z,73.9
2018-05-25T14:28:40.283Z,73.9
2018-05-25T14:29:30.294Z,73.9
2018-05-25T14:30:20.358Z,73.9
2018-05-25T14:31:10.153Z,73.9
2018-05-25T14:32:00.509Z,73.9
2018-05-25T14:32:50.305Z,73.9
2018-05-25T14:33:40.335Z,73.9
2018-05-25T14:34:30.384Z,73.9
2018-05-25T14:35:20.442Z,73.9
2018-05-25T14:36:10.800Z,73.9
2018-05-25T14:37:00.580Z,73.8
2018-05-25T14:37:50.668Z,73.8
2018-05-25T14:38:40.708Z,73.8
2018-05-25T14:39:31.059Z,73.8
2018-05-25T14:40:21.133Z,73.8
2018-05-25T14:41:10.948Z,73.8
2018-05-25T14:42:00.964Z,73.8
2018-05-25T14:42:51.337Z,73.8
2018-05-25T14:43:40.548Z,73.8
2018-05-25T14:44:31.171Z,73.8
2018-05-25T14:45:21.513Z,73.8
2018-05-25T14:46:10.768Z,73.8
2018-05-25T14:47:01.360Z,73.8
2018-05-25T14:47:51.679Z,73.8
2018-05-25T14:48:41.762Z,73.8
2018-05-25T14:49:31.816Z,73.8
2018-05-25T14:50:21.082Z,73.7
2018-05-25T14:51:11.723Z,73.7
2018-05-25T14:52:01.743Z,73.7
2018-05-25T14:52:52.093Z,73.7
2018-05-25T14:53:42.142Z,73.7
2018-05-25T14:54:31.970Z,73.7
2018-05-25T14:55:21.701Z,73.7
2018-05-25T14:56:12.345Z,73.6
2018-05-25T14:57:02.419Z,73.6
2018-05-25T14:57:52.653Z,73.6
2018-05-25T14:58:42.533Z,73.6
2018-05-25T14:59:32.590Z,73.6
2018-05-25T15:00:22.125Z,73.6
2018-05-25T15:01:12.459Z,73.6
2018-05-25T15:02:02.500Z,73.6
2018-05-25T15:02:52.857Z,73.6
2018-05-25T15:03:42.926Z,73.6
2018-05-25T15:04:32.965Z,73.6
2018-05-25T15:05:22.916Z,73.6
2018-05-25T15:06:12.870Z,73.6
2018-05-25T15:07:03.198Z,73.6
2018-05-25T15:07:53.249Z,73.6
2018-05-25T15:08:43.290Z,73.6
2018-05-25T15:09:33.358Z,73.6
2018-05-25T15:10:23.146Z,73.5
2018-05-25T15:11:13.478Z,73.5
2018-05-25T15:12:03.327Z,73.5
2018-05-25T15:12:53.074Z,73.5
2018-05-25T15:13:43.675Z,73.5
2018-05-25T15:14:33.728Z,73.5
2018-05-25T15:15:23.799Z,73.5
2018-05-25T15:16:12.743Z,73.5
2018-05-25T15:17:03.956Z,73.4
2018-05-25T15:17:53.977Z,73.4
2018-05-25T15:18:43.775Z,73.4
2018-05-25T15:19:33.843Z,73.4
2018-05-25T15:20:23.331Z,73.4
2018-05-25T15:21:14.228Z,73.4
2018-05-25T15:22:04.313Z,73.4
2018-05-25T15:22:54.408Z,73.4
2018-05-25T15:23:44.281Z,73.4
2018-05-25T15:24:34.524Z,73.4
2018-05-25T15:25:24.559Z,73.4
2018-05-25T15:26:14.655Z,73.4
2018-05-25T15:27:04.707Z,73.4
2018-05-25T15:27:54.474Z,73.4
2018-05-25T15:28:44.538Z,73.4
2018-05-25T15:29:35.042Z,73.4
2018-05-25T15:30:24.942Z,73.3
2018-05-25T15:31:15.048Z,73.3
2018-05-25T15:32:05.614Z,73.3
2018-05-25T15:32:54.856Z,73.3
2018-05-25T15:33:45.198Z,73.3
2018-05-25T15:34:35.267Z,73.3
2018-05-25T15:35:25.332Z,73.3
2018-05-25T15:36:15.391Z,73.3
2018-05-25T15:37:05.443Z,73.3
2018-05-25T15:37:55.514Z,73.3
2018-05-25T15:38:45.313Z,73.3
2018-05-25T15:39:35.391Z,73.3
2018-05-25T15:40:25.428Z,73.3
2018-05-25T15:41:15.770Z,73.3
2018-05-25T15:42:05.549Z,73.3
2018-05-25T15:42:55.618Z,73.2
2018-05-25T15:43:45.408Z,73.2
2018-05-25T15:44:35.465Z,73.2
2018-05-25T15:45:25.815Z,73.2
2018-05-25T15:46:16.159Z,73.2
2018-05-25T15:47:06.209Z,73.2
2018-05-25T15:47:56.004Z,73.2
2018-05-25T15:48:46.105Z,73.2
2018-05-25T15:49:36.405Z,73.1
2018-05-25T15:50:26.469Z,73.1
2018-05-25T15:51:16.574Z,73.1
2018-05-25T15:52:06.604Z,73.1
2018-05-25T15:52:56.713Z,73.1
2018-05-25T15:53:46.802Z,73.1
2018-05-25T15:54:36.825Z,73.1
2018-05-25T15:55:26.857Z,73.1
2018-05-25T15:56:16.948Z,73.1
2018-05-25T15:57:06.964Z,73.1
2018-05-25T15:57:56.521Z,73.1
2018-05-25T15:58:46.846Z,73.1
2018-05-25T15:59:37.201Z,73.1
2018-05-25T16:00:27.245Z,73.1
2018-05-25T16:01:17.335Z,73.1
2018-05-25T16:02:07.432Z,73.1
2018-05-25T16:02:57.137Z,73
2018-05-25T16:03:47.229Z,73
2018-05-25T16:04:37.574Z,73
2018-05-25T16:05:27.627Z,73
2018-05-25T16:06:17.760Z,73
2018-05-25T16:07:07.494Z,73
2018-05-25T16:07:57.821Z,73
2018-05-25T16:08:48.196Z,73
2018-05-25T16:09:37.963Z,72.9
2018-05-25T16:10:28.025Z,72.9
2018-05-25T16:11:17.800Z,72.9
2018-05-25T16:12:08.135Z,72.9
2018-05-25T16:12:57.955Z,72.9
2018-05-25T16:13:48.272Z,72.9
2018-05-25T16:14:38.326Z,72.9
2018-05-25T16:15:28.107Z,72.9
2018-05-25T16:16:18.470Z,72.9
2018-05-25T16:17:08.103Z,72.9
2018-05-25T16:17:58.610Z,72.9
2018-05-25T16:18:48.740Z,72.9
2018-05-25T16:19:38.457Z,72.9
2018-05-25T16:20:28.849Z,72.9
2018-05-25T16:21:18.914Z,72.9
2018-05-25T16:22:08.619Z,72.9
2018-05-25T16:22:59.004Z,72.8
2018-05-25T16:23:49.047Z,72.8
2018-05-25T16:24:39.088Z,72.8
2018-05-25T16:25:29.194Z,72.8
2018-05-25T16:26:19.231Z,72.8
2018-05-25T16:27:09.029Z,72.8
2018-05-25T16:27:59.411Z,72.8
2018-05-25T16:28:49.698Z,72.8
2018-05-25T16:29:39.488Z,72.8
2018-05-25T16:30:29.283Z,72.8
2018-05-25T16:31:19.609Z,72.8
2018-05-25T16:32:09.711Z,72.8
2018-05-25T16:32:59.758Z,72.8
2018-05-25T16:33:49.526Z,72.8
2018-05-25T16:34:39.894Z,72.7
2018-05-25T16:35:29.952Z,72.7
2018-05-25T16:36:19.731Z,72.7
2018-05-25T16:37:10.081Z,72.7
2018-05-25T16:38:00.150Z,72.7
2018-05-25T16:38:49.631Z,72.7
2018-05-25T16:39:40.005Z,72.7
2018-05-25T16:40:29.791Z,72.7
2018-05-25T16:41:20.408Z,72.6
2018-05-25T16:42:10.453Z,72.6
2018-05-25T16:43:00.242Z,72.6
2018-05-25T16:43:50.585Z,72.6
2018-05-25T16:44:40.650Z,72.6
2018-05-25T16:45:30.415Z,72.6
2018-05-25T16:46:20.794Z,72.6
2018-05-25T16:47:10.544Z,72.6
2018-05-25T16:48:00.907Z,72.6
2018-05-25T16:48:50.681Z,72.6
2018-05-25T16:49:40.734Z,72.6
2018-05-25T16:50:31.076Z,72.6
2018-05-25T16:51:20.879Z,72.6
2018-05-25T16:52:11.241Z,72.6
2018-05-25T16:53:01.279Z,72.6
2018-05-25T16:53:51.352Z,72.5
2018-05-25T16:54:40.580Z,72.5
2018-05-25T16:55:31.461Z,72.5
2018-05-25T16:56:21.543Z,72.5
2018-05-25T16:57:11.629Z,72.5
2018-05-25T16:58:01.133Z,72.5
2018-05-25T16:58:52.212Z,72.5
2018-05-25T16:59:41.803Z,72.5
2018-05-25T17:00:31.612Z,72.4
2018-05-25T17:01:21.405Z,72.4
2018-05-25T17:02:12.047Z,72.4
2018-05-25T17:03:02.043Z,72.4
2018-05-25T17:03:52.137Z,72.4
2018-05-25T17:04:42.173Z,72.4
2018-05-25T17:05:32.292Z,72.4
2018-05-25T17:06:22.292Z,72.4
2018-05-25T17:07:12.390Z,72.4
2018-05-25T17:08:01.882Z,72.4
2018-05-25T17:08:52.505Z,72.4
2018-05-25T17:09:42.547Z,72.4
2018-05-25T17:10:32.346Z,72.4
2018-05-25T17:11:22.678Z,72.4
2018-05-25T17:12:12.810Z,72.4
2018-05-25T17:13:02.830Z,72.4
2018-05-25T17:13:52.867Z,72.3
2018-05-25T17:14:42.927Z,72.3
2018-05-25T17:15:32.458Z,72.3
2018-05-25T17:16:22.826Z,72.3
2018-05-25T17:17:13.130Z,72.3
2018-05-25T17:18:03.205Z,72.3
2018-05-25T17:18:52.985Z,72.3
2018-05-25T17:19:43.319Z,72.3
2018-05-25T17:20:32.835Z,72.3
2018-05-25T17:21:23.495Z,72.3
2018-05-25T17:22:13.527Z,72.3
2018-05-25T17:23:03.333Z,72.3
2018-05-25T17:23:53.375Z,72.3
2018-05-25T17:24:43.727Z,72.3
2018-05-25T17:25:33.812Z,72.3
2018-05-25T17:26:23.854Z,72.2
2018-05-25T17:27:13.912Z,72.2
2018-05-25T17:28:03.999Z,72.2
2018-05-25T17:28:53.752Z,72.2
2018-05-25T17:29:44.102Z,72.2
2018-05-25T17:30:34.223Z,72.2
2018-05-25T17:31:24.001Z,72.2
2018-05-25T17:32:14.272Z,72.2
2018-05-25T17:33:04.093Z,72.1
2018-05-25T17:33:54.430Z,72.1
2018-05-25T17:34:44.191Z,72.1
2018-05-25T17:35:34.546Z,72.1
2018-05-25T17:36:24.603Z,72.1
2018-05-25T17:37:14.130Z,72.1
2018-05-25T17:38:04.731Z,72.1
2018-05-25T17:38:54.802Z,72.1
2018-05-25T17:39:44.853Z,72.1
2018-05-25T17:40:34.645Z,72.1
2018-05-25T17:41:25.007Z,72.1
2018-05-25T17:42:15.536Z,72.1
2018-05-25T17:43:05.126Z,72.1
2018-05-25T17:43:55.191Z,72.1
2018-05-25T17:44:45.273Z,72.1
2018-05-25T17:45:35.320Z,72
2018-05-25T17:46:25.399Z,72
2018-05-25T17:47:15.472Z,72
2018-05-25T17:48:05.519Z,72
2018-05-25T17:48:55.059Z,72
2018-05-25T17:49:45.366Z,72
2018-05-25T17:50:35.684Z,72
2018-05-25T17:51:25.529Z,72
2018-05-25T17:52:15.673Z,71.9
2018-05-25T17:53:05.620Z,71.9
2018-05-25T17:53:55.758Z,71.9
2018-05-25T17:54:45.512Z,71.9
2018-05-25T17:55:36.131Z,71.9
2018-05-25T17:56:25.880Z,71.9
2018-05-25T17:57:15.676Z,71.9
2018-05-25T17:58:05.715Z,71.9
2018-05-25T17:58:56.045Z,71.9
2018-05-25T17:59:46.135Z,71.9
2018-05-25T18:00:35.898Z,71.9
2018-05-25T18:01:26.518Z,71.9
2018-05-25T18:02:16.309Z,71.9
2018-05-25T18:03:06.916Z,71.9
2018-05-25T18:03:56.705Z,71.9
2018-05-25T18:04:46.541Z,71.8
2018-05-25T18:05:37.093Z,71.8
2018-05-25T18:06:26.891Z,71.8
2018-05-25T18:07:16.972Z,71.8
2018-05-25T18:08:07.033Z,71.8
2018-05-25T18:08:57.091Z,71.8
2018-05-25T18:09:47.157Z,71.8
2018-05-25T18:10:37.213Z,71.8
2018-05-25T18:11:26.748Z,71.8
2018-05-25T18:12:16.798Z,71.8
2018-05-25T18:13:07.410Z,71.8
2018-05-25T18:13:56.910Z,71.8
2018-05-25T18:14:46.984Z,71.8
2018-05-25T18:15:37.347Z,71.8
2018-05-25T18:16:27.384Z,71.8
2018-05-25T18:17:17.310Z,71.7
2018-05-25T18:18:07.790Z,71.7
2018-05-25T18:18:57.855Z,71.7
2018-05-25T18:19:47.917Z,71.7
2018-05-25T18:20:37.715Z,71.7
2018-05-25T18:21:28.042Z,71.7
2018-05-25T18:22:17.849Z,71.7
2018-05-25T18:23:07.605Z,71.7
2018-05-25T18:23:58.226Z,71.6
2018-05-25T18:24:48.023Z,71.6
2018-05-25T18:25:37.237Z,71.6
2018-05-25T18:26:27.875Z,71.6
2018-05-25T18:27:18.428Z,71.6
2018-05-25T18:28:08.559Z,71.6
2018-05-25T18:28:58.617Z,71.6
2018-05-25T18:29:48.399Z,71.6
2018-05-25T18:30:38.732Z,71.6
2018-05-25T18:31:28.540Z,71.6
2018-05-25T18:32:18.303Z,71.6
2018-05-25T18:33:08.657Z,71.6
2018-05-25T18:33:59.022Z,71.5
2018-05-25T18:34:48.782Z,71.5
2018-05-25T18:35:38.557Z,71.5
2018-05-25T18:36:29.227Z,71.5
2018-05-25T18:37:19.253Z,71.5
2018-05-25T18:38:08.733Z,71.4
2018-05-25T18:38:58.799Z,71.4
2018-05-25T18:39:49.424Z,71.4